createdAt,value
2023-04-02T00:00:02.225Z,632.00
2023-04-02T00:01:01.793Z,630.00
2023-04-02T00:02:01.725Z,629.00
2023-04-02T00:03:01.927Z,631.00
2023-04-02T00:04:01.762Z,630.00
2023-04-02T00:05:00.679Z,629.00
2023-04-02T00:06:01.662Z,629.00
2023-04-02T00:07:00.655Z,630.00
2023-04-02T00:08:01.673Z,631.00
2023-04-02T00:09:01.677Z,633.00
2023-04-02T00:10:01.661Z,633.00
2023-04-02T00:11:00.626Z,634.00
2023-04-02T00:12:01.616Z,634.00
2023-04-02T00:13:01.636Z,634.00
2023-04-02T00:14:00.608Z,635.00
2023-04-02T00:15:01.611Z,635.00
2023-04-02T00:16:01.609Z,633.00
2023-04-02T00:17:01.606Z,633.00
2023-04-02T00:18:00.627Z,632.00
2023-04-02T00:19:00.561Z,632.00
2023-04-02T00:20:01.569Z,632.00
2023-04-02T00:21:01.563Z,633.00
2023-04-02T00:22:01.358Z,635.00
2023-04-02T00:23:01.557Z,633.00
2023-04-02T00:24:01.518Z,633.00
2023-04-02T00:25:01.533Z,633.00
2023-04-02T00:26:01.620Z,634.00
2023-04-02T00:27:00.512Z,634.00
2023-04-02T00:28:01.504Z,634.00
2023-04-02T00:29:01.502Z,634.00
2023-04-02T00:30:00.498Z,635.00
2023-04-02T00:31:01.489Z,634.00
2023-04-02T00:32:01.521Z,635.00
2023-04-02T00:33:01.513Z,635.00
2023-04-02T00:34:01.462Z,634.00
2023-04-02T00:35:00.469Z,634.00
2023-04-02T00:36:01.499Z,633.00
2023-04-02T00:37:01.446Z,635.00
2023-04-02T00:38:00.451Z,636.00
2023-04-02T00:39:00.453Z,636.00
2023-04-02T00:40:00.417Z,637.00
2023-04-02T00:41:01.415Z,638.00
2023-04-02T00:42:01.439Z,639.00
2023-04-02T00:43:01.414Z,638.00
2023-04-02T00:44:01.397Z,637.00
2023-04-02T00:45:01.398Z,640.00
2023-04-02T00:46:00.471Z,639.00
2023-04-02T00:47:01.367Z,637.00
2023-04-02T00:48:01.448Z,637.00
2023-04-02T00:49:01.359Z,639.00
2023-04-02T00:50:01.360Z,638.00
2023-04-02T00:51:01.358Z,637.00
2023-04-02T00:52:01.359Z,638.00
2023-04-02T00:53:01.365Z,639.00
2023-04-02T00:54:01.312Z,637.00
2023-04-02T00:55:01.322Z,638.00
2023-04-02T00:56:01.298Z,636.00
2023-04-02T00:57:01.359Z,634.00
2023-04-02T00:58:00.392Z,634.00
2023-04-02T00:59:01.309Z,635.00
2023-04-02T01:00:00.325Z,636.00
2023-04-02T01:01:01.380Z,637.00
2023-04-02T01:02:00.359Z,638.00
2023-04-02T01:03:01.484Z,636.00
2023-04-02T01:05:00.438Z,635.00
2023-04-02T01:06:01.443Z,633.00
2023-04-02T01:07:01.451Z,632.00
2023-04-02T01:08:01.453Z,634.00
2023-04-02T01:09:01.466Z,633.00
2023-04-02T01:10:01.462Z,633.00
2023-04-02T01:11:01.484Z,630.00
2023-04-02T01:12:00.503Z,629.00
2023-04-02T01:13:01.512Z,629.00
2023-04-02T01:14:00.547Z,631.00
2023-04-02T01:15:01.549Z,632.00
2023-04-02T01:16:01.588Z,632.00
2023-04-02T01:17:00.549Z,633.00
2023-04-02T01:18:01.673Z,632.00
2023-04-02T01:19:00.579Z,633.00
2023-04-02T01:20:00.604Z,632.00
2023-04-02T01:21:00.619Z,630.00
2023-04-02T01:22:01.633Z,630.00
2023-04-02T01:23:01.637Z,630.00
2023-04-02T01:24:00.635Z,631.00
2023-04-02T01:25:01.632Z,631.00
2023-04-02T01:26:01.640Z,630.00
2023-04-02T01:27:01.656Z,629.00
2023-04-02T01:28:01.639Z,627.00
2023-04-02T01:29:01.638Z,628.00
2023-04-02T01:30:01.682Z,630.00
2023-04-02T01:31:01.709Z,630.00
2023-04-02T01:32:01.655Z,631.00
2023-04-02T01:33:00.712Z,629.00
2023-04-02T01:34:01.692Z,629.00
2023-04-02T01:35:00.729Z,631.00
2023-04-02T01:36:01.774Z,629.00
2023-04-02T01:37:01.728Z,629.00
2023-04-02T01:38:00.736Z,627.00
2023-04-02T01:39:01.752Z,625.00
2023-04-02T01:40:01.760Z,626.00
2023-04-02T01:41:01.772Z,627.00
2023-04-02T01:42:01.783Z,629.00
2023-04-02T01:43:01.784Z,631.00
2023-04-02T01:44:01.796Z,629.00
2023-04-02T01:45:01.826Z,630.00
2023-04-02T01:46:01.844Z,631.00
2023-04-02T01:47:01.827Z,631.00
2023-04-02T01:48:01.914Z,632.00
2023-04-02T01:49:01.869Z,633.00
2023-04-02T01:50:01.890Z,633.00
2023-04-02T01:51:01.920Z,631.00
2023-04-02T01:52:01.955Z,629.00
2023-04-02T01:53:01.960Z,627.00
2023-04-02T01:54:01.971Z,628.00
2023-04-02T01:55:00.996Z,625.00
2023-04-02T01:56:02.008Z,626.00
2023-04-02T01:57:01.088Z,624.00
2023-04-02T01:58:02.065Z,624.00
2023-04-02T01:59:02.088Z,625.00
2023-04-02T02:00:02.103Z,627.00
2023-04-02T02:01:02.154Z,627.00
2023-04-02T02:02:01.223Z,628.00
2023-04-02T02:03:01.197Z,628.00
2023-04-02T02:04:01.196Z,628.00
2023-04-02T02:05:01.174Z,629.00
2023-04-02T02:06:02.209Z,630.00
2023-04-02T02:07:02.230Z,628.00
2023-04-02T02:08:02.243Z,630.00
2023-04-02T02:09:02.251Z,630.00
2023-04-02T02:10:02.279Z,631.00
2023-04-02T02:11:02.279Z,629.00
2023-04-02T02:12:02.293Z,629.00
2023-04-02T02:13:02.310Z,630.00
2023-04-02T02:14:02.362Z,629.00
2023-04-02T02:15:02.363Z,630.00
2023-04-02T02:16:02.421Z,629.00
2023-04-02T02:17:02.429Z,629.00
2023-04-02T02:18:01.510Z,629.00
2023-04-02T02:19:02.472Z,631.00
2023-04-02T02:20:02.509Z,631.00
2023-04-02T02:21:02.498Z,633.00
2023-04-02T02:22:01.528Z,632.00
2023-04-02T02:23:02.555Z,633.00
2023-04-02T02:24:01.561Z,631.00
2023-04-02T02:25:02.601Z,630.00
2023-04-02T02:26:01.642Z,630.00
2023-04-02T02:27:01.632Z,629.00
2023-04-02T02:28:02.674Z,630.00
2023-04-02T02:29:02.693Z,632.00
2023-04-02T02:30:02.713Z,632.00
2023-04-02T02:31:01.730Z,632.00
2023-04-02T02:32:02.806Z,631.00
2023-04-02T02:33:02.826Z,633.00
2023-04-02T02:34:02.834Z,635.00
2023-04-02T02:35:02.825Z,632.00
2023-04-02T02:36:02.895Z,630.00
2023-04-02T02:37:01.871Z,630.00
2023-04-02T02:38:02.941Z,629.00
2023-04-02T02:39:02.076Z,629.00
2023-04-02T02:40:02.942Z,630.00
2023-04-02T02:41:01.968Z,626.00
2023-04-02T02:42:02.988Z,627.00
2023-04-02T02:43:02.014Z,627.00
2023-04-02T02:44:03.072Z,628.00
2023-04-02T02:45:02.080Z,629.00
2023-04-02T02:46:03.121Z,627.00
2023-04-02T02:47:03.126Z,628.00
2023-04-02T02:48:03.187Z,628.00
2023-04-02T02:49:03.205Z,626.00
2023-04-02T02:50:02.273Z,627.00
2023-04-02T02:51:03.258Z,630.00
2023-04-02T02:52:02.287Z,629.00
2023-04-02T02:53:03.289Z,630.00
2023-04-02T02:54:03.316Z,631.00
2023-04-02T02:55:03.344Z,632.00
2023-04-02T02:56:03.375Z,631.00
2023-04-02T02:57:03.391Z,636.00
2023-04-02T02:58:03.415Z,635.00
2023-04-02T02:59:03.426Z,632.00
2023-04-02T03:00:03.474Z,629.00
2023-04-02T03:01:03.532Z,630.00
2023-04-02T03:02:03.535Z,630.00
2023-04-02T03:03:02.677Z,631.00
2023-04-02T03:04:03.645Z,632.00
2023-04-02T03:05:03.546Z,635.00
2023-04-02T03:06:03.608Z,635.00
2023-04-02T03:07:02.602Z,633.00
2023-04-02T03:08:03.605Z,632.00
2023-04-02T03:09:02.605Z,632.00
2023-04-02T03:10:03.631Z,632.00
2023-04-02T03:11:03.636Z,634.00
2023-04-02T03:12:03.653Z,635.00
2023-04-02T03:13:03.680Z,635.00
2023-04-02T03:14:03.712Z,635.00
2023-04-02T03:15:02.707Z,636.00
2023-04-02T03:16:03.805Z,637.00
2023-04-02T03:17:03.794Z,637.00
2023-04-02T03:18:03.780Z,634.00
2023-04-02T03:19:03.787Z,631.00
2023-04-02T03:20:03.807Z,630.00
2023-04-02T03:21:03.819Z,629.00
2023-04-02T03:22:03.893Z,628.00
2023-04-02T03:23:03.854Z,631.00
2023-04-02T03:24:03.886Z,632.00
2023-04-02T03:25:03.896Z,631.00
2023-04-02T03:26:03.933Z,632.00
2023-04-02T03:27:03.940Z,633.00
2023-04-02T03:28:04.016Z,633.00
2023-04-02T03:29:04.022Z,634.00
2023-04-02T03:30:04.090Z,635.00
2023-04-02T03:31:04.169Z,635.00
2023-04-02T03:32:04.095Z,631.00
2023-04-02T03:33:03.218Z,634.00
2023-04-02T03:34:04.192Z,636.00
2023-04-02T03:35:04.173Z,632.00
2023-04-02T03:36:04.237Z,632.00
2023-04-02T03:37:04.257Z,629.00
2023-04-02T03:38:04.291Z,628.00
2023-04-02T03:39:04.348Z,628.00
2023-04-02T03:40:03.337Z,629.00
2023-04-02T03:41:04.355Z,628.00
2023-04-02T03:42:04.375Z,630.00
2023-04-02T03:43:04.429Z,630.00
2023-04-02T03:44:04.454Z,631.00
2023-04-02T03:45:04.492Z,634.00
2023-04-02T03:46:04.546Z,635.00
2023-04-02T03:47:04.556Z,632.00
2023-04-02T03:48:03.650Z,631.00
2023-04-02T03:49:04.651Z,633.00
2023-04-02T03:50:03.657Z,633.00
2023-04-02T03:51:03.697Z,632.00
2023-04-02T03:52:03.745Z,635.00
2023-04-02T03:53:04.755Z,633.00
2023-04-02T03:54:04.845Z,634.00
2023-04-02T03:55:04.855Z,633.00
2023-04-02T03:56:03.869Z,633.00
2023-04-02T03:57:05.035Z,635.00
2023-04-02T03:58:04.936Z,637.00
2023-04-02T03:59:03.953Z,639.00
2023-04-02T04:00:04.005Z,641.00
2023-04-02T04:01:04.034Z,642.00
2023-04-02T04:02:05.092Z,642.00
2023-04-02T04:03:04.124Z,642.00
2023-04-02T04:04:05.174Z,641.00
2023-04-02T04:05:05.167Z,642.00
2023-04-02T04:06:04.191Z,644.00
2023-04-02T04:07:05.220Z,644.00
2023-04-02T04:08:05.249Z,641.00
2023-04-02T04:09:05.276Z,639.00
2023-04-02T04:10:04.333Z,642.00
2023-04-02T04:11:05.344Z,642.00
2023-04-02T04:12:04.349Z,640.00
2023-04-02T04:13:05.415Z,641.00
2023-04-02T04:14:04.430Z,639.00
2023-04-02T04:15:05.450Z,638.00
2023-04-02T04:16:04.488Z,635.00
2023-04-02T04:17:05.508Z,637.00
2023-04-02T04:18:05.575Z,638.00
2023-04-02T04:19:04.577Z,638.00
2023-04-02T04:20:05.605Z,638.00
2023-04-02T04:21:04.640Z,639.00
2023-04-02T04:22:05.672Z,640.00
2023-04-02T04:23:05.719Z,638.00
2023-04-02T04:24:05.790Z,639.00
2023-04-02T04:25:05.847Z,638.00
2023-04-02T04:26:04.837Z,635.00
2023-04-02T04:27:05.869Z,635.00
2023-04-02T04:28:05.938Z,634.00
2023-04-02T04:29:05.915Z,639.00
2023-04-02T04:30:06.202Z,642.00
2023-04-02T04:31:04.978Z,642.00
2023-04-02T04:32:06.101Z,639.00
2023-04-02T04:33:05.119Z,638.00
2023-04-02T04:34:05.082Z,635.00
2023-04-02T04:35:06.103Z,634.00
2023-04-02T04:36:06.184Z,635.00
2023-04-02T04:37:05.171Z,636.00
2023-04-02T04:38:06.214Z,637.00
2023-04-02T04:39:05.262Z,637.00
2023-04-02T04:40:06.317Z,639.00
2023-04-02T04:41:06.329Z,644.00
2023-04-02T04:42:05.387Z,644.00
2023-04-02T04:43:06.400Z,644.00
2023-04-02T04:44:06.465Z,644.00
2023-04-02T04:45:05.497Z,643.00
2023-04-02T04:46:06.519Z,642.00
2023-04-02T04:47:06.553Z,641.00
2023-04-02T04:48:06.642Z,642.00
2023-04-02T04:49:06.647Z,643.00
2023-04-02T04:50:06.693Z,641.00
2023-04-02T04:51:06.715Z,641.00
2023-04-02T04:52:06.743Z,641.00
2023-04-02T04:53:06.783Z,641.00
2023-04-02T04:54:06.826Z,639.00
2023-04-02T04:55:06.854Z,638.00
2023-04-02T04:56:18.824Z,636.00
2023-04-02T04:57:06.905Z,634.00
2023-04-02T04:58:06.904Z,633.00
2023-04-02T04:59:06.874Z,634.00
2023-04-02T05:00:06.851Z,632.00
2023-04-02T05:01:06.894Z,631.00
2023-04-02T05:02:06.873Z,629.00
2023-04-02T05:03:06.873Z,629.00
2023-04-02T05:04:06.828Z,629.00
2023-04-02T05:05:06.832Z,630.00
2023-04-02T05:06:05.862Z,630.00
2023-04-02T05:07:06.867Z,627.00
2023-04-02T05:08:06.837Z,629.00
2023-04-02T05:09:06.813Z,631.00
2023-04-02T05:10:06.792Z,630.00
2023-04-02T05:11:06.774Z,631.00
2023-04-02T05:12:06.785Z,634.00
2023-04-02T05:13:06.764Z,635.00
2023-04-02T05:14:07.180Z,636.00
2023-04-02T05:15:06.753Z,636.00
2023-04-02T05:16:05.799Z,637.00
2023-04-02T05:17:06.735Z,638.00
2023-04-02T05:18:06.781Z,637.00
2023-04-02T05:19:06.728Z,636.00
2023-04-02T05:20:05.758Z,633.00
2023-04-02T05:21:06.728Z,633.00
2023-04-02T05:22:06.703Z,635.00
2023-04-02T05:23:06.696Z,638.00
2023-04-02T05:24:06.711Z,640.00
2023-04-02T05:25:05.679Z,640.00
2023-04-02T05:26:06.688Z,639.00
2023-04-02T05:27:06.728Z,639.00
2023-04-02T05:28:06.649Z,639.00
2023-04-02T05:29:05.646Z,639.00
2023-04-02T05:30:05.682Z,638.00
2023-04-02T05:31:06.691Z,636.00
2023-04-02T05:32:06.639Z,636.00
2023-04-02T05:33:06.697Z,636.00
2023-04-02T05:34:05.688Z,636.00
2023-04-02T05:35:06.761Z,636.00
2023-04-02T05:36:06.799Z,636.00
2023-04-02T05:37:07.197Z,636.00
2023-04-02T05:38:06.856Z,635.00
2023-04-02T05:39:06.884Z,634.00
2023-04-02T05:40:06.908Z,634.00
2023-04-02T05:41:06.939Z,636.00
2023-04-02T05:42:06.982Z,637.00
2023-04-02T05:43:06.011Z,633.00
2023-04-02T05:44:07.056Z,634.00
2023-04-02T05:45:06.076Z,632.00
2023-04-02T05:46:07.181Z,632.00
2023-04-02T05:47:07.141Z,633.00
2023-04-02T05:48:06.218Z,632.00
2023-04-02T05:49:07.234Z,636.00
2023-04-02T05:50:07.263Z,637.00
2023-04-02T05:51:07.290Z,636.00
2023-04-02T05:52:07.340Z,636.00
2023-04-02T05:53:07.365Z,635.00
2023-04-02T05:54:07.419Z,634.00
2023-04-02T05:55:06.452Z,634.00
2023-04-02T05:56:07.482Z,635.00
2023-04-02T05:57:07.540Z,636.00
2023-04-02T05:59:07.543Z,636.00
2023-04-02T06:00:07.539Z,637.00
2023-04-02T06:01:07.536Z,637.00
2023-04-02T06:02:07.589Z,635.00
2023-04-02T06:03:06.615Z,637.00
2023-04-02T06:04:06.615Z,636.00
2023-04-02T06:05:06.500Z,637.00
2023-04-02T06:06:07.500Z,638.00
2023-04-02T06:07:07.501Z,640.00
2023-04-02T06:08:07.477Z,640.00
2023-04-02T06:09:06.466Z,641.00
2023-04-02T06:10:07.475Z,640.00
2023-04-02T06:11:06.465Z,639.00
2023-04-02T06:12:07.470Z,638.00
2023-04-02T06:13:07.495Z,636.00
2023-04-02T06:14:07.433Z,635.00
2023-04-02T06:15:07.448Z,635.00
2023-04-02T06:16:07.431Z,635.00
2023-04-02T06:17:07.417Z,636.00
2023-04-02T06:18:07.459Z,636.00
2023-04-02T06:19:07.414Z,637.00
2023-04-02T06:20:07.418Z,637.00
2023-04-02T06:21:06.392Z,637.00
2023-04-02T06:22:07.407Z,637.00
2023-04-02T06:23:07.392Z,636.00
2023-04-02T06:24:06.364Z,636.00
2023-04-02T06:25:07.382Z,635.00
2023-04-02T06:26:07.373Z,634.00
2023-04-02T06:27:07.378Z,632.00
2023-04-02T06:28:06.347Z,634.00
2023-04-02T06:29:07.356Z,632.00
2023-04-02T06:30:07.367Z,633.00
2023-04-02T06:31:07.320Z,631.00
2023-04-02T06:32:06.323Z,634.00
2023-04-02T06:33:06.460Z,636.00
2023-04-02T06:34:07.385Z,637.00
2023-04-02T06:35:06.389Z,638.00
2023-04-02T06:36:07.468Z,636.00
2023-04-02T06:37:07.503Z,636.00
2023-04-02T06:38:07.503Z,636.00
2023-04-02T06:39:07.565Z,636.00
2023-04-02T06:40:06.580Z,636.00
2023-04-02T06:41:06.635Z,635.00
2023-04-02T06:42:06.661Z,636.00
2023-04-02T06:43:07.719Z,635.00
2023-04-02T06:44:07.726Z,633.00
2023-04-02T06:45:07.758Z,635.00
2023-04-02T06:46:07.829Z,637.00
2023-04-02T06:47:07.817Z,636.00
2023-04-02T06:48:07.871Z,635.00
2023-04-02T06:49:07.894Z,635.00
2023-04-02T06:50:06.918Z,635.00
2023-04-02T06:51:07.917Z,634.00
2023-04-02T06:52:07.931Z,634.00
2023-04-02T06:53:07.946Z,632.00
2023-04-02T06:54:06.961Z,631.00
2023-04-02T06:55:07.061Z,632.00
2023-04-02T06:56:08.007Z,632.00
2023-04-02T06:57:08.078Z,627.00
2023-04-02T06:58:08.089Z,629.00
2023-04-02T06:59:08.119Z,630.00
2023-04-02T07:00:08.162Z,629.00
2023-04-02T07:01:08.266Z,629.00
2023-04-02T07:02:08.227Z,627.00
2023-04-02T07:03:07.286Z,627.00
2023-04-02T07:04:07.294Z,626.00
2023-04-02T07:05:08.446Z,627.00
2023-04-02T07:06:08.398Z,626.00
2023-04-02T07:07:08.413Z,626.00
2023-04-02T07:08:08.453Z,626.00
2023-04-02T07:09:08.468Z,629.00
2023-04-02T07:10:08.513Z,627.00
2023-04-02T07:11:07.548Z,627.00
2023-04-02T07:12:08.593Z,628.00
2023-04-02T07:13:08.632Z,629.00
2023-04-02T07:14:07.674Z,628.00
2023-04-02T07:15:08.699Z,627.00
2023-04-02T07:16:08.751Z,626.00
2023-04-02T07:17:08.757Z,626.00
2023-04-02T07:18:08.854Z,626.00
2023-04-02T07:19:08.834Z,627.00
2023-04-02T07:20:07.868Z,625.00
2023-04-02T07:21:08.894Z,627.00
2023-04-02T07:22:08.941Z,629.00
2023-04-02T07:23:08.966Z,631.00
2023-04-02T07:24:08.967Z,631.00
2023-04-02T07:25:09.019Z,628.00
2023-04-02T07:26:09.058Z,628.00
2023-04-02T07:27:09.086Z,627.00
2023-04-02T07:28:09.105Z,629.00
2023-04-02T07:29:09.144Z,627.00
2023-04-02T07:30:09.178Z,626.00
2023-04-02T07:31:09.221Z,625.00
2023-04-02T07:32:09.239Z,625.00
2023-04-02T07:33:08.322Z,626.00
2023-04-02T07:34:09.323Z,625.00
2023-04-02T07:35:09.348Z,626.00
2023-04-02T07:36:09.403Z,626.00
2023-04-02T07:37:08.434Z,627.00
2023-04-02T07:38:09.488Z,629.00
2023-04-02T07:39:09.503Z,628.00
2023-04-02T07:40:08.555Z,629.00
2023-04-02T07:41:09.590Z,628.00
2023-04-02T07:42:09.629Z,629.00
2023-04-02T07:43:08.665Z,629.00
2023-04-02T07:44:09.711Z,631.00
2023-04-02T07:45:09.738Z,630.00
2023-04-02T07:46:09.836Z,631.00
2023-04-02T07:47:08.808Z,634.00
2023-04-02T07:48:09.912Z,639.00
2023-04-02T07:49:09.868Z,640.00
2023-04-02T07:50:09.921Z,640.00
2023-04-02T07:51:09.966Z,638.00
2023-04-02T07:52:09.982Z,639.00
2023-04-02T07:53:09.016Z,638.00
2023-04-02T07:54:09.103Z,637.00
2023-04-02T07:55:10.124Z,636.00
2023-04-02T07:56:09.174Z,638.00
2023-04-02T07:57:10.214Z,637.00
2023-04-02T07:58:10.200Z,639.00
2023-04-02T07:59:10.182Z,638.00
2023-04-02T08:00:10.219Z,640.00
2023-04-02T08:01:10.169Z,639.00
2023-04-02T08:02:10.220Z,636.00
2023-04-02T08:03:10.229Z,635.00
2023-04-02T08:04:09.175Z,635.00
2023-04-02T08:05:10.152Z,637.00
2023-04-02T08:06:10.172Z,641.00
2023-04-02T08:07:10.214Z,644.00
2023-04-02T08:08:10.113Z,645.00
2023-04-02T08:09:10.111Z,647.00
2023-04-02T08:10:10.149Z,647.00
2023-04-02T08:11:09.121Z,646.00
2023-04-02T08:12:09.097Z,646.00
2023-04-02T08:13:09.087Z,647.00
2023-04-02T08:14:10.088Z,646.00
2023-04-02T08:15:10.090Z,643.00
2023-04-02T08:16:10.113Z,644.00
2023-04-02T08:17:10.082Z,644.00
2023-04-02T08:18:10.074Z,639.00
2023-04-02T08:19:09.051Z,641.00
2023-04-02T08:20:10.049Z,642.00
2023-04-02T08:21:10.057Z,642.00
2023-04-02T08:22:10.032Z,642.00
2023-04-02T08:23:10.025Z,645.00
2023-04-02T08:24:09.025Z,648.00
2023-04-02T08:25:10.017Z,648.00
2023-04-02T08:26:10.042Z,647.00
2023-04-02T08:27:10.034Z,646.00
2023-04-02T08:28:10.061Z,645.00
2023-04-02T08:29:10.103Z,645.00
2023-04-02T08:30:10.134Z,648.00
2023-04-02T08:31:10.234Z,646.00
2023-04-02T08:32:10.205Z,645.00
2023-04-02T08:33:09.314Z,645.00
2023-04-02T08:34:10.249Z,645.00
2023-04-02T08:35:10.303Z,643.00
2023-04-02T08:36:10.337Z,644.00
2023-04-02T08:37:09.373Z,643.00
2023-04-02T08:38:10.389Z,641.00
2023-04-02T08:39:10.404Z,640.00
2023-04-02T08:40:10.453Z,638.00
2023-04-02T08:41:10.477Z,637.00
2023-04-02T08:42:10.542Z,639.00
2023-04-02T08:43:10.550Z,641.00
2023-04-02T08:44:10.586Z,641.00
2023-04-02T08:45:23.531Z,643.00
2023-04-02T08:46:10.673Z,647.00
2023-04-02T08:47:10.623Z,646.00
2023-04-02T08:48:10.603Z,646.00
2023-04-02T08:49:09.611Z,647.00
2023-04-02T08:50:10.592Z,645.00
2023-04-02T08:51:10.596Z,643.00
2023-04-02T08:52:10.613Z,641.00
2023-04-02T08:53:09.570Z,640.00
2023-04-02T08:54:10.556Z,641.00
2023-04-02T08:55:10.553Z,643.00
2023-04-02T08:56:09.590Z,644.00
2023-04-02T08:57:10.597Z,643.00
2023-04-02T08:58:09.570Z,641.00
2023-04-02T08:59:10.526Z,640.00
2023-04-02T09:00:10.530Z,642.00
2023-04-02T09:01:10.583Z,641.00
2023-04-02T09:02:09.547Z,640.00
2023-04-02T09:03:10.617Z,639.00
2023-04-02T09:04:10.490Z,636.00
2023-04-02T09:05:10.568Z,634.00
2023-04-02T09:06:10.475Z,633.00
2023-04-02T09:07:10.472Z,630.00
2023-04-02T09:08:10.488Z,630.00
2023-04-02T09:09:09.471Z,631.00
2023-04-02T09:10:09.474Z,628.00
2023-04-02T09:11:10.456Z,632.00
2023-04-02T09:12:10.448Z,633.00
2023-04-02T09:13:10.448Z,633.00
2023-04-02T09:14:09.469Z,637.00
2023-04-02T09:15:10.432Z,638.00
2023-04-02T09:16:10.477Z,638.00
2023-04-02T09:17:09.405Z,642.00
2023-04-02T09:18:09.458Z,643.00
2023-04-02T09:19:09.389Z,645.00
2023-04-02T09:20:09.393Z,643.00
2023-04-02T09:21:09.386Z,642.00
2023-04-02T09:22:10.376Z,637.00
2023-04-02T09:23:10.374Z,634.00
2023-04-02T09:24:10.351Z,634.00
2023-04-02T09:25:09.371Z,630.00
2023-04-02T09:26:10.343Z,631.00
2023-04-02T09:27:10.352Z,630.00
2023-04-02T09:28:09.353Z,633.00
2023-04-02T09:29:10.341Z,632.00
2023-04-02T09:30:10.381Z,633.00
2023-04-02T09:31:09.398Z,632.00
2023-04-02T09:32:09.405Z,634.00
2023-04-02T09:33:10.451Z,637.00
2023-04-02T09:34:09.436Z,636.00
2023-04-02T09:35:22.367Z,634.00
2023-04-02T09:36:10.474Z,637.00
2023-04-02T09:37:10.439Z,637.00
2023-04-02T09:38:10.500Z,637.00
2023-04-02T09:39:10.429Z,633.00
2023-04-02T09:40:09.461Z,635.00
2023-04-02T09:41:10.412Z,634.00
2023-04-02T09:42:10.400Z,635.00
2023-04-02T09:43:10.427Z,636.00
2023-04-02T09:44:10.380Z,635.00
2023-04-02T09:45:10.383Z,633.00
2023-04-02T09:46:10.436Z,631.00
2023-04-02T09:47:10.379Z,632.00
2023-04-02T09:48:10.397Z,634.00
2023-04-02T09:49:10.363Z,634.00
2023-04-02T09:50:10.357Z,635.00
2023-04-02T09:51:10.366Z,636.00
2023-04-02T09:52:10.355Z,634.00
2023-04-02T09:53:10.329Z,630.00
2023-04-02T09:54:10.330Z,630.00
2023-04-02T09:55:09.321Z,631.00
2023-04-02T09:56:09.304Z,630.00
2023-04-02T09:57:10.335Z,631.00
2023-04-02T09:58:10.316Z,631.00
2023-04-02T09:59:10.291Z,630.00
2023-04-02T10:00:18.379Z,629.00
2023-04-02T10:01:10.271Z,628.00
2023-04-02T10:02:10.288Z,628.00
2023-04-02T10:03:09.260Z,629.00
2023-04-02T10:04:10.292Z,631.00
2023-04-02T10:05:10.254Z,632.00
2023-04-02T10:06:10.231Z,634.00
2023-04-02T10:07:10.226Z,636.00
2023-04-02T10:08:10.236Z,634.00
2023-04-02T10:09:10.219Z,634.00
2023-04-02T10:10:10.226Z,633.00
2023-04-02T10:11:10.203Z,633.00
2023-04-02T10:12:10.195Z,634.00
2023-04-02T10:13:10.556Z,634.00
2023-04-02T10:14:09.173Z,635.00
2023-04-02T10:15:10.172Z,635.00
2023-04-02T10:16:10.231Z,635.00
2023-04-02T10:17:10.245Z,635.00
2023-04-02T10:18:10.237Z,634.00
2023-04-02T10:19:10.143Z,633.00
2023-04-02T10:20:09.156Z,630.00
2023-04-02T10:21:09.122Z,630.00
2023-04-02T10:22:09.127Z,631.00
2023-04-02T10:23:10.114Z,628.00
2023-04-02T10:24:10.103Z,627.00
2023-04-02T10:25:10.096Z,628.00
2023-04-02T10:26:09.111Z,629.00
2023-04-02T10:27:10.084Z,630.00
2023-04-02T10:28:10.087Z,630.00
2023-04-02T10:29:10.145Z,629.00
2023-04-02T10:30:09.067Z,631.00
2023-04-02T10:31:09.077Z,632.00
2023-04-02T10:32:10.050Z,632.00
2023-04-02T10:33:09.099Z,631.00
2023-04-02T10:34:10.071Z,633.00
2023-04-02T10:35:10.547Z,634.00
2023-04-02T10:36:09.050Z,636.00
2023-04-02T10:37:10.013Z,637.00
2023-04-02T10:38:09.006Z,640.00
2023-04-02T10:39:08.992Z,641.00
2023-04-02T10:40:10.026Z,639.00
2023-04-02T10:41:09.991Z,640.00
2023-04-02T10:42:09.996Z,639.00
2023-04-02T10:43:09.983Z,639.00
2023-04-02T10:44:19.012Z,637.00
2023-04-02T10:45:09.953Z,638.00
2023-04-02T10:46:09.989Z,637.00
2023-04-02T10:47:09.928Z,638.00
2023-04-02T10:48:09.957Z,638.00
2023-04-02T10:49:09.958Z,638.00
2023-04-02T10:50:09.941Z,637.00
2023-04-02T10:51:08.915Z,638.00
2023-04-02T10:52:09.915Z,638.00
2023-04-02T10:53:09.894Z,639.00
2023-04-02T10:54:09.899Z,642.00
2023-04-02T10:55:09.890Z,640.00
2023-04-02T10:56:09.882Z,641.00
2023-04-02T10:57:09.924Z,639.00
2023-04-02T10:58:09.886Z,642.00
2023-04-02T10:59:09.862Z,641.00
2023-04-02T11:00:09.851Z,639.00
2023-04-02T11:01:09.895Z,637.00
2023-04-02T11:02:09.839Z,636.00
2023-04-02T11:03:08.905Z,634.00
2023-04-02T11:04:09.830Z,634.00
2023-04-02T11:05:09.820Z,633.00
2023-04-02T11:06:12.014Z,635.00
2023-04-02T11:07:14.512Z,634.00
2023-04-02T11:08:09.798Z,635.00
2023-04-02T11:09:08.804Z,635.00
2023-04-02T11:10:09.790Z,636.00
2023-04-02T11:11:09.784Z,637.00
2023-04-02T11:12:09.763Z,639.00
2023-04-02T11:13:08.755Z,639.00
2023-04-02T11:14:08.768Z,638.00
2023-04-02T11:15:09.756Z,638.00
2023-04-02T11:16:09.775Z,638.00
2023-04-02T11:17:08.738Z,638.00
2023-04-02T11:18:09.717Z,640.00
2023-04-02T11:19:08.724Z,639.00
2023-04-02T11:20:09.719Z,638.00
2023-04-02T11:21:08.699Z,637.00
2023-04-02T11:22:08.717Z,637.00
2023-04-02T11:23:09.691Z,638.00
2023-04-02T11:24:09.677Z,637.00
2023-04-02T11:25:08.665Z,637.00
2023-04-02T11:26:09.670Z,635.00
2023-04-02T11:27:09.653Z,634.00
2023-04-02T11:28:08.643Z,634.00
2023-04-02T11:29:08.658Z,635.00
2023-04-02T11:30:08.643Z,634.00
2023-04-02T11:31:09.646Z,635.00
2023-04-02T11:32:08.628Z,636.00
2023-04-02T11:33:08.651Z,637.00
2023-04-02T11:34:09.626Z,637.00
2023-04-02T11:35:08.603Z,637.00
2023-04-02T11:36:09.602Z,640.00
2023-04-02T11:37:09.628Z,639.00
2023-04-02T11:38:09.603Z,640.00
2023-04-02T11:39:17.135Z,638.00
2023-04-02T11:40:09.629Z,638.00
2023-04-02T11:41:08.555Z,635.00
2023-04-02T11:42:09.567Z,633.00
2023-04-02T11:43:09.568Z,630.00
2023-04-02T11:44:09.565Z,630.00
2023-04-02T11:45:09.564Z,630.00
2023-04-02T11:46:08.603Z,628.00
2023-04-02T11:47:08.500Z,628.00
2023-04-02T11:48:09.501Z,630.00
2023-04-02T11:49:08.501Z,629.00
2023-04-02T11:50:09.509Z,628.00
2023-04-02T11:51:08.483Z,631.00
2023-04-02T11:52:12.380Z,632.00
2023-04-02T11:53:08.472Z,635.00
2023-04-02T11:54:08.493Z,638.00
2023-04-02T11:55:09.456Z,640.00
2023-04-02T11:56:09.454Z,638.00
2023-04-02T11:57:08.476Z,639.00
2023-04-02T11:58:09.435Z,641.00
2023-04-02T11:59:08.426Z,641.00
2023-04-02T12:00:09.536Z,635.00
2023-04-02T12:01:09.399Z,634.00
2023-04-02T12:02:09.419Z,634.00
2023-04-02T12:03:09.425Z,637.00
2023-04-02T12:04:09.397Z,637.00
2023-04-02T12:05:09.451Z,637.00
2023-04-02T12:06:09.423Z,638.00
2023-04-02T12:07:09.352Z,637.00
2023-04-02T12:08:09.360Z,640.00
2023-04-02T12:09:09.357Z,638.00
2023-04-02T12:10:09.399Z,640.00
2023-04-02T12:11:09.378Z,640.00
2023-04-02T12:12:08.325Z,639.00
2023-04-02T12:13:08.320Z,639.00
2023-04-02T12:14:09.333Z,637.00
2023-04-02T12:15:08.318Z,637.00
2023-04-02T12:16:08.313Z,638.00
2023-04-02T12:17:10.055Z,639.00
2023-04-02T12:18:09.296Z,639.00
2023-04-02T12:19:09.301Z,638.00
2023-04-02T12:20:09.415Z,638.00
2023-04-02T12:21:09.262Z,640.00
2023-04-02T12:22:09.250Z,643.00
2023-04-02T12:23:08.263Z,643.00
2023-04-02T12:24:09.275Z,644.00
2023-04-02T12:25:09.251Z,643.00
2023-04-02T12:26:09.270Z,642.00
2023-04-02T12:27:09.238Z,643.00
2023-04-02T12:28:09.223Z,641.00
2023-04-02T12:29:09.279Z,642.00
2023-04-02T12:30:09.216Z,645.00